createdAt,value
2022-08-27T00:02:04.878Z,19.85
2022-08-27T00:04:32.479Z,19.86
2022-08-27T00:06:59.123Z,19.88
2022-08-27T00:09:27.112Z,19.87
2022-08-27T00:11:54.541Z,19.73
2022-08-27T00:14:21.753Z,19.79
2022-08-27T00:16:48.849Z,19.75
2022-08-27T00:19:15.339Z,19.74
2022-08-27T00:21:41.863Z,19.70
2022-08-27T00:24:08.980Z,19.71
2022-08-27T00:26:40.141Z,19.67
2022-08-27T00:29:09.529Z,19.70
2022-08-27T00:31:36.754Z,19.69
2022-08-27T00:34:03.507Z,19.71
2022-08-27T00:36:31.227Z,19.66
2022-08-27T00:38:57.685Z,19.63
2022-08-27T00:41:24.369Z,19.58
2022-08-27T00:43:59.654Z,19.66
2022-08-27T00:46:43.697Z,19.66
2022-08-27T00:49:18.965Z,19.63
2022-08-27T00:52:02.972Z,19.63
2022-08-27T00:54:29.822Z,19.67
2022-08-27T00:56:58.410Z,19.69
2022-08-27T00:59:29.296Z,19.67
2022-08-27T01:02:14.786Z,19.67
2022-08-27T01:04:44.555Z,19.59
2022-08-27T01:07:11.692Z,19.52
2022-08-27T01:09:39.321Z,19.43
2022-08-27T01:12:11.818Z,19.52
2022-08-27T01:14:39.886Z,19.43
2022-08-27T01:17:09.229Z,19.45
2022-08-27T01:19:50.406Z,19.43
2022-08-27T01:22:57.258Z,19.45
2022-08-27T01:25:25.435Z,19.52
2022-08-27T01:27:55.830Z,19.43
2022-08-27T01:30:23.887Z,19.34
2022-08-27T01:32:51.077Z,19.37
2022-08-27T01:35:18.061Z,19.26
2022-08-27T01:37:49.356Z,19.22
2022-08-27T01:40:20.373Z,19.22
2022-08-27T01:42:50.124Z,19.19
2022-08-27T01:45:33.188Z,19.22
2022-08-27T01:48:00.870Z,19.13
2022-08-27T01:50:31.832Z,19.14
2022-08-27T01:53:03.172Z,19.10
2022-08-27T01:55:29.817Z,19.12
2022-08-27T01:57:56.668Z,19.04
2022-08-27T02:00:28.238Z,19.04
2022-08-27T02:02:56.526Z,19.09
2022-08-27T02:05:48.766Z,18.93
2022-08-27T02:08:17.104Z,18.97
2022-08-27T02:10:46.404Z,18.86
2022-08-27T02:13:13.465Z,18.91
2022-08-27T02:15:41.889Z,19.01
2022-08-27T02:18:12.003Z,18.97
2022-08-27T02:20:39.495Z,18.96
2022-08-27T02:23:06.700Z,18.82
2022-08-27T02:25:33.535Z,18.83
2022-08-27T02:28:02.012Z,18.85
2022-08-27T02:30:32.165Z,18.82
2022-08-27T02:33:02.718Z,18.85
2022-08-27T02:35:34.327Z,18.86
2022-08-27T02:38:02.021Z,18.84
2022-08-27T02:40:29.490Z,18.80
2022-08-27T02:42:56.030Z,18.90
2022-08-27T02:45:23.013Z,18.97
2022-08-27T02:47:49.736Z,18.92
2022-08-27T02:50:17.573Z,18.87
2022-08-27T02:52:46.406Z,18.85
2022-08-27T02:55:14.440Z,18.94
2022-08-27T02:57:43.997Z,18.89
2022-08-27T03:00:13.738Z,18.80
2022-08-27T03:02:40.441Z,18.87
2022-08-27T03:05:10.973Z,18.91
2022-08-27T03:07:38.349Z,18.85
2022-08-27T03:10:06.801Z,18.95
2022-08-27T03:12:37.430Z,18.90
2022-08-27T03:15:07.658Z,18.82
2022-08-27T03:17:53.317Z,18.81
2022-08-27T03:20:21.626Z,18.82
2022-08-27T03:22:48.347Z,18.78
2022-08-27T03:25:15.305Z,18.79
2022-08-27T03:27:42.290Z,18.74
2022-08-27T03:30:16.934Z,18.80
2022-08-27T03:32:43.834Z,18.83
2022-08-27T03:35:11.993Z,18.76
2022-08-27T03:37:39.379Z,18.72
2022-08-27T03:40:08.360Z,18.67
2022-08-27T03:42:36.865Z,18.71
2022-08-27T03:45:04.763Z,18.74
2022-08-27T03:47:32.350Z,18.70
2022-08-27T03:50:00.606Z,18.77
2022-08-27T03:52:28.265Z,18.74
2022-08-27T03:54:54.971Z,18.71
2022-08-27T03:57:25.605Z,18.65
2022-08-27T03:59:54.371Z,18.73
2022-08-27T04:02:22.041Z,18.63
2022-08-27T04:04:48.744Z,18.61
2022-08-27T04:07:15.305Z,18.61
2022-08-27T04:09:42.430Z,18.60
2022-08-27T04:12:12.167Z,18.59
2022-08-27T04:14:39.447Z,18.64
2022-08-27T04:17:06.678Z,18.54
2022-08-27T04:19:38.436Z,18.58
2022-08-27T04:22:07.927Z,18.61
2022-08-27T04:24:37.798Z,18.56
2022-08-27T04:27:06.974Z,18.48
2022-08-27T04:29:34.804Z,18.51
2022-08-27T04:32:04.945Z,18.52
2022-08-27T04:34:33.030Z,18.49
2022-08-27T04:37:00.108Z,18.49
2022-08-27T04:39:29.415Z,18.55
2022-08-27T04:41:59.396Z,18.52
2022-08-27T04:44:28.618Z,18.59
2022-08-27T04:46:57.946Z,18.46
2022-08-27T04:49:25.336Z,18.49
2022-08-27T04:51:51.864Z,18.53
2022-08-27T04:54:26.003Z,18.50
2022-08-27T04:56:59.057Z,18.47
2022-08-27T04:59:25.587Z,18.55
2022-08-27T05:01:52.068Z,18.51
2022-08-27T05:04:19.023Z,18.40
2022-08-27T05:06:46.799Z,18.39
2022-08-27T05:09:15.227Z,18.42
2022-08-27T05:11:43.376Z,18.50
2022-08-27T05:14:14.361Z,18.56
2022-08-27T05:16:41.190Z,18.55
2022-08-27T05:19:10.989Z,18.51
2022-08-27T05:21:45.712Z,18.49
2022-08-27T05:24:12.443Z,18.48
2022-08-27T05:26:39.405Z,18.44
2022-08-27T05:29:06.847Z,18.44
2022-08-27T05:31:35.079Z,18.55
2022-08-27T05:34:10.612Z,18.52
2022-08-27T05:36:47.978Z,18.45
2022-08-27T05:39:16.366Z,18.40
2022-08-27T05:41:43.078Z,18.42
2022-08-27T05:44:39.001Z,18.38
2022-08-27T05:46:57.515Z,18.36
2022-08-27T05:49:24.427Z,18.43
2022-08-27T05:51:50.966Z,18.47
2022-08-27T05:54:20.246Z,18.39
2022-08-27T05:56:49.412Z,18.36
2022-08-27T05:59:35.028Z,18.35
2022-08-27T06:02:02.439Z,18.37
2022-08-27T06:04:28.910Z,18.36
2022-08-27T06:06:55.445Z,18.32
2022-08-27T06:09:31.057Z,18.30
2022-08-27T06:12:00.017Z,18.30
2022-08-27T06:14:27.205Z,18.23
2022-08-27T06:16:53.738Z,18.25
2022-08-27T06:19:20.665Z,18.30
2022-08-27T06:22:01.189Z,18.22
2022-08-27T06:24:34.924Z,18.27
2022-08-27T06:27:01.497Z,18.31
2022-08-27T06:29:28.266Z,18.27
2022-08-27T06:31:56.287Z,18.35
2022-08-27T06:34:23.183Z,18.28
2022-08-27T06:36:49.805Z,18.29
2022-08-27T06:39:17.073Z,18.38
2022-08-27T06:41:44.680Z,18.30
2022-08-27T06:44:12.663Z,18.37
2022-08-27T06:46:40.115Z,18.29
2022-08-27T06:49:07.208Z,18.31
2022-08-27T06:51:36.212Z,18.43
2022-08-27T06:54:06.915Z,18.35
2022-08-27T06:56:33.958Z,18.36
2022-08-27T06:59:03.886Z,18.48
2022-08-27T07:01:37.038Z,18.45
2022-08-27T07:04:08.036Z,18.49
2022-08-27T07:06:37.850Z,18.49
2022-08-27T07:09:07.134Z,18.42
2022-08-27T07:11:33.698Z,18.61
2022-08-27T07:14:02.081Z,18.56
2022-08-27T07:16:30.698Z,18.51
2022-08-27T07:19:01.821Z,18.46
2022-08-27T07:21:32.789Z,18.39
2022-08-27T07:24:05.305Z,18.49
2022-08-27T07:26:36.332Z,18.48
2022-08-27T07:29:12.257Z,18.42
2022-08-27T07:31:40.026Z,18.39
2022-08-27T07:34:10.173Z,18.48
2022-08-27T07:36:38.697Z,18.46
2022-08-27T07:39:07.065Z,18.55
2022-08-27T07:41:58.281Z,18.63
2022-08-27T07:44:28.148Z,18.57
2022-08-27T07:47:02.089Z,18.64
2022-08-27T07:49:29.581Z,18.58
2022-08-27T07:51:56.175Z,18.58
2022-08-27T07:54:25.613Z,18.58
2022-08-27T07:56:55.252Z,18.61
2022-08-27T07:59:27.118Z,18.76
2022-08-27T08:01:55.885Z,18.68
2022-08-27T08:04:25.092Z,18.84
2022-08-27T08:06:52.007Z,18.80
2022-08-27T08:09:20.229Z,18.88
2022-08-27T08:11:47.424Z,18.79
2022-08-27T08:14:14.120Z,18.81
2022-08-27T08:16:44.014Z,18.84
2022-08-27T08:19:11.300Z,18.90
2022-08-27T08:21:38.785Z,18.91
2022-08-27T08:24:06.948Z,18.83
2022-08-27T08:26:33.898Z,19.02
2022-08-27T08:29:04.986Z,18.95
2022-08-27T08:31:32.681Z,18.95
2022-08-27T08:33:59.156Z,19.04
2022-08-27T08:36:25.684Z,19.10
2022-08-27T08:38:53.353Z,19.15
2022-08-27T08:41:33.768Z,19.12
2022-08-27T08:44:13.303Z,19.28
2022-08-27T08:46:48.573Z,19.22
2022-08-27T08:49:33.626Z,19.23
2022-08-27T08:52:31.674Z,19.24
2022-08-27T08:55:36.962Z,19.27
2022-08-27T08:58:13.034Z,19.17
2022-08-27T09:00:43.794Z,19.28
2022-08-27T09:03:15.619Z,19.47
2022-08-27T09:05:48.022Z,19.63
2022-08-27T09:08:53.117Z,19.62
2022-08-27T09:11:44.374Z,19.64
2022-08-27T09:14:22.017Z,19.80
2022-08-27T09:16:56.443Z,19.76
2022-08-27T09:19:24.675Z,19.65
2022-08-27T09:22:03.312Z,19.71
2022-08-27T09:24:59.298Z,19.68
2022-08-27T09:27:25.955Z,19.65
2022-08-27T09:29:56.005Z,19.50
2022-08-27T09:32:28.596Z,19.67
2022-08-27T09:35:00.988Z,19.80
2022-08-27T09:37:34.662Z,19.71
2022-08-27T09:40:22.601Z,19.69
2022-08-27T09:42:53.314Z,19.86
2022-08-27T09:45:27.555Z,19.87
2022-08-27T09:48:16.077Z,19.85
2022-08-27T09:50:49.360Z,19.76
2022-08-27T09:53:21.963Z,19.88
2022-08-27T09:55:53.530Z,19.74
2022-08-27T09:58:25.947Z,19.81
2022-08-27T10:01:22.283Z,20.04
2022-08-27T10:03:49.684Z,20.11
2022-08-27T10:06:46.076Z,20.15
2022-08-27T10:09:47.095Z,20.27
2022-08-27T10:12:51.875Z,20.22
2022-08-27T10:15:18.619Z,20.29
2022-08-27T10:18:08.194Z,20.53
2022-08-27T10:20:48.186Z,20.66
2022-08-27T10:23:21.886Z,20.82
2022-08-27T10:26:00.987Z,20.97
2022-08-27T10:28:34.680Z,20.95
2022-08-27T10:31:26.157Z,21.12
2022-08-27T10:34:07.106Z,21.55
2022-08-27T10:36:42.325Z,21.67
2022-08-27T10:39:44.193Z,22.08
2022-08-27T10:42:22.102Z,22.33
2022-08-27T10:45:31.439Z,22.29
2022-08-27T10:48:05.909Z,22.00
2022-08-27T10:50:55.654Z,22.29
2022-08-27T10:53:30.278Z,22.31
2022-08-27T10:56:19.306Z,22.28
2022-08-27T10:59:02.794Z,22.12
2022-08-27T11:01:58.199Z,22.28
2022-08-27T11:04:31.382Z,22.42
2022-08-27T11:07:07.191Z,22.30
2022-08-27T11:09:46.381Z,22.19
2022-08-27T11:12:18.304Z,22.14
2022-08-27T11:14:58.333Z,22.10
2022-08-27T11:17:37.251Z,22.24
2022-08-27T11:20:25.893Z,22.34
2022-08-27T11:23:12.417Z,22.49
2022-08-27T11:25:53.820Z,22.67
2022-08-27T11:28:29.942Z,22.81
2022-08-27T11:30:59.581Z,23.02
2022-08-27T11:33:37.161Z,22.85
2022-08-27T11:36:07.183Z,22.82
2022-08-27T11:38:58.731Z,22.70
2022-08-27T11:41:45.256Z,22.33
2022-08-27T11:44:14.872Z,22.36
2022-08-27T11:46:48.513Z,22.41
2022-08-27T11:49:41.426Z,22.43
2022-08-27T11:52:09.845Z,22.52
2022-08-27T11:54:46.536Z,22.49
2022-08-27T11:57:29.200Z,22.19
2022-08-27T11:59:55.942Z,22.24
2022-08-27T12:03:17.129Z,22.32
2022-08-27T12:05:54.419Z,21.98
2022-08-27T12:08:22.058Z,22.02
2022-08-27T12:11:07.417Z,21.90
2022-08-27T12:14:13.080Z,21.95
2022-08-27T12:16:48.579Z,21.79
2022-08-27T12:19:44.641Z,21.79
2022-08-27T12:22:54.522Z,21.69
2022-08-27T12:25:23.226Z,21.67
2022-08-27T12:27:59.624Z,21.50
2022-08-27T12:30:38.803Z,21.47
2022-08-27T12:33:14.378Z,21.45
2022-08-27T12:35:47.834Z,21.52
2022-08-27T12:38:39.382Z,21.42
2022-08-27T12:41:09.236Z,21.38
2022-08-27T12:43:41.433Z,21.40
2022-08-27T12:46:16.028Z,21.34
2022-08-27T12:48:47.809Z,21.44
2022-08-27T12:51:27.594Z,21.49
2022-08-27T12:54:13.541Z,21.48
2022-08-27T12:56:55.385Z,21.32
2022-08-27T12:59:49.715Z,21.41
2022-08-27T13:02:40.825Z,21.34
2022-08-27T13:05:10.758Z,21.35
2022-08-27T13:07:44.397Z,21.33
2022-08-27T13:10:19.126Z,21.37
2022-08-27T13:12:47.863Z,21.24
2022-08-27T13:15:16.854Z,21.16
2022-08-27T13:17:46.375Z,21.15
2022-08-27T13:20:52.637Z,21.03
2022-08-27T13:23:24.256Z,21.07
2022-08-27T13:26:11.722Z,21.27
2022-08-27T13:28:41.507Z,21.37
2022-08-27T13:31:11.446Z,21.46
2022-08-27T13:33:41.481Z,21.33
2022-08-27T13:36:09.762Z,21.38
2022-08-27T13:38:41.651Z,21.50
2022-08-27T13:41:30.789Z,21.42
2022-08-27T13:44:05.224Z,21.43
2022-08-27T13:46:32.540Z,21.52
2022-08-27T13:49:00.313Z,21.46
2022-08-27T13:51:31.471Z,21.40
2022-08-27T13:54:13.205Z,21.57
2022-08-27T13:56:55.388Z,21.48
2022-08-27T13:59:26.505Z,21.50
2022-08-27T14:02:11.261Z,21.48
2022-08-27T14:04:51.686Z,21.54
2022-08-27T14:07:35.479Z,21.40
2022-08-27T14:10:27.495Z,21.23
2022-08-27T14:13:17.102Z,21.26
2022-08-27T14:15:46.451Z,21.25
2022-08-27T14:18:54.933Z,21.16
2022-08-27T14:21:16.651Z,21.17
2022-08-27T14:23:43.468Z,21.32
2022-08-27T14:26:10.484Z,21.27
2022-08-27T14:28:37.693Z,21.34
2022-08-27T14:31:05.491Z,21.43
2022-08-27T14:33:32.485Z,21.56
2022-08-27T14:35:59.710Z,21.46
2022-08-27T14:38:31.543Z,21.61
2022-08-27T14:40:58.500Z,21.44
2022-08-27T14:43:25.529Z,21.47
2022-08-27T14:45:53.545Z,21.53
2022-08-27T14:48:28.704Z,21.44
2022-08-27T14:50:56.277Z,21.40
2022-08-27T14:53:23.414Z,21.25
2022-08-27T14:55:51.934Z,21.25
2022-08-27T14:58:19.352Z,21.32
2022-08-27T15:00:46.332Z,21.21
2022-08-27T15:03:13.335Z,21.10
2022-08-27T15:05:40.265Z,21.03
2022-08-27T15:08:09.496Z,21.06
2022-08-27T15:10:40.222Z,21.15
2022-08-27T15:13:07.367Z,21.02
2022-08-27T15:15:34.080Z,21.02
2022-08-27T15:18:00.685Z,21.06
2022-08-27T15:20:27.152Z,21.13
2022-08-27T15:22:53.751Z,21.09
2022-08-27T15:25:21.166Z,21.04
2022-08-27T15:27:48.114Z,21.10
2022-08-27T15:30:17.447Z,21.08
2022-08-27T15:32:47.364Z,21.19
2022-08-27T15:35:17.485Z,21.24
2022-08-27T15:37:44.617Z,21.19
2022-08-27T15:40:16.626Z,21.24
2022-08-27T15:42:43.581Z,21.23
2022-08-27T15:45:13.115Z,21.35
2022-08-27T15:47:40.132Z,21.34
2022-08-27T15:50:07.575Z,21.32
2022-08-27T15:52:40.293Z,21.46
2022-08-27T15:55:18.538Z,21.68
2022-08-27T15:57:45.118Z,21.74
2022-08-27T16:00:12.958Z,21.63
2022-08-27T16:02:41.641Z,21.54
2022-08-27T16:05:09.471Z,21.58
2022-08-27T16:07:36.415Z,21.59
2022-08-27T16:10:04.201Z,21.59
2022-08-27T16:12:30.698Z,21.52
2022-08-27T16:14:57.199Z,21.63
2022-08-27T16:17:24.636Z,21.64
2022-08-27T16:19:51.405Z,21.61
2022-08-27T16:22:18.119Z,21.46
2022-08-27T16:24:45.717Z,21.44
2022-08-27T16:27:12.703Z,21.31
2022-08-27T16:29:39.520Z,21.26
2022-08-27T16:32:11.686Z,21.24
2022-08-27T16:34:39.871Z,21.25
2022-08-27T16:37:07.710Z,21.19
2022-08-27T16:42:10.254Z,21.12
2022-08-27T16:44:38.681Z,21.12
2022-08-27T16:47:07.120Z,21.23
2022-08-27T16:49:52.775Z,21.27
2022-08-27T16:52:21.253Z,21.19
2022-08-27T16:54:47.750Z,21.14
2022-08-27T16:57:14.538Z,21.06
2022-08-27T16:59:41.078Z,21.02
2022-08-27T17:02:17.471Z,21.03
2022-08-27T17:04:49.276Z,20.98
2022-08-27T17:07:27.922Z,21.00
2022-08-27T17:09:54.665Z,21.00
2022-08-27T17:12:24.615Z,20.94
2022-08-27T17:14:51.166Z,20.64
2022-08-27T17:17:18.359Z,20.63
2022-08-27T17:19:45.517Z,20.65
2022-08-27T17:22:12.984Z,20.72
2022-08-27T17:24:40.247Z,20.81
2022-08-27T17:27:07.711Z,20.80
2022-08-27T17:29:34.253Z,20.84
2022-08-27T17:32:01.298Z,20.82
2022-08-27T17:34:28.661Z,20.82
2022-08-27T17:36:55.205Z,20.67
2022-08-27T17:39:22.205Z,20.67
2022-08-27T17:41:51.298Z,20.63
2022-08-27T17:44:23.454Z,20.70
2022-08-27T17:46:51.341Z,20.60
2022-08-27T17:49:18.431Z,20.61
2022-08-27T17:51:45.918Z,20.62
2022-08-27T17:54:36.782Z,20.59
2022-08-27T17:57:10.527Z,20.48
2022-08-27T17:59:37.151Z,20.43
2022-08-27T18:02:04.035Z,20.43
2022-08-27T18:04:30.589Z,20.36
2022-08-27T18:06:57.046Z,20.40
2022-08-27T18:09:23.655Z,20.35
2022-08-27T18:11:50.415Z,20.33
2022-08-27T18:14:18.484Z,20.34
2022-08-27T18:16:45.944Z,20.31
2022-08-27T18:19:13.010Z,20.17
2022-08-27T18:21:46.365Z,20.13
2022-08-27T18:24:13.580Z,20.18
2022-08-27T18:26:40.438Z,20.15
2022-08-27T18:29:14.537Z,20.06
2022-08-27T18:31:42.155Z,20.16
2022-08-27T18:34:09.315Z,19.97
2022-08-27T18:36:36.696Z,19.96
2022-08-27T18:39:03.242Z,20.05
2022-08-27T18:41:30.716Z,20.03
2022-08-27T18:43:58.322Z,19.99
2022-08-27T18:46:25.147Z,19.86
2022-08-27T18:48:51.841Z,19.84
2022-08-27T18:51:20.706Z,19.75
2022-08-27T18:53:48.198Z,19.72
2022-08-27T18:56:18.594Z,19.53
2022-08-27T18:58:46.069Z,19.50
2022-08-27T19:01:17.099Z,19.36
2022-08-27T19:03:47.744Z,19.36
2022-08-27T19:06:17.474Z,19.28
2022-08-27T19:08:45.313Z,19.22
2022-08-27T19:11:12.012Z,19.04
2022-08-27T19:13:39.562Z,19.10
2022-08-27T19:16:13.789Z,19.03
2022-08-27T19:18:41.973Z,18.90
2022-08-27T19:21:08.926Z,18.86
2022-08-27T19:23:37.168Z,18.67
2022-08-27T19:26:06.914Z,18.63
2022-08-27T19:28:41.987Z,18.55
2022-08-27T19:31:09.088Z,18.47
2022-08-27T19:33:38.909Z,18.45
2022-08-27T19:36:12.519Z,18.38
2022-08-27T19:38:42.126Z,18.37
2022-08-27T19:41:12.101Z,18.29
2022-08-27T19:43:39.683Z,18.25
2022-08-27T19:46:13.543Z,18.15
2022-08-27T19:48:40.571Z,18.03
2022-08-27T19:51:10.558Z,18.02
2022-08-27T19:53:46.027Z,17.98
2022-08-27T19:56:13.759Z,17.90
2022-08-27T19:58:44.546Z,17.92
2022-08-27T20:01:12.016Z,17.92
2022-08-27T20:03:38.831Z,17.92
2022-08-27T20:06:07.802Z,17.85
2022-08-27T20:08:34.399Z,17.85
2022-08-27T20:11:01.376Z,17.76
2022-08-27T20:13:32.367Z,17.68
2022-08-27T20:16:00.053Z,17.69
2022-08-27T20:18:26.642Z,17.68
2022-08-27T20:20:53.319Z,17.59
2022-08-27T20:23:25.255Z,17.57
2022-08-27T20:25:52.293Z,17.55
2022-08-27T20:28:38.893Z,17.51
2022-08-27T20:31:06.950Z,17.52
2022-08-27T20:33:34.090Z,17.45
2022-08-27T20:36:01.385Z,17.37
2022-08-27T20:38:27.975Z,17.42
2022-08-27T20:40:54.431Z,17.25
2022-08-27T20:43:22.431Z,17.31
2022-08-27T20:45:48.940Z,17.29
2022-08-27T20:48:16.941Z,17.31
2022-08-27T20:50:43.724Z,17.25
2022-08-27T20:53:10.779Z,17.15
2022-08-27T20:55:41.124Z,17.09
2022-08-27T20:58:26.673Z,17.13
2022-08-27T21:00:55.083Z,17.10
2022-08-27T21:03:23.592Z,17.15
2022-08-27T21:05:50.125Z,17.01
2022-08-27T21:08:19.470Z,17.03
2022-08-27T21:10:50.801Z,16.92
2022-08-27T21:13:18.614Z,16.87
2022-08-27T21:15:45.305Z,16.89
2022-08-27T21:18:13.139Z,16.86
2022-08-27T21:20:40.626Z,16.85
2022-08-27T21:23:08.777Z,16.80
2022-08-27T21:25:39.768Z,16.80
2022-08-27T21:28:07.974Z,16.85
2022-08-27T21:30:35.879Z,16.71
2022-08-27T21:33:05.915Z,16.65
2022-08-27T21:35:33.048Z,16.59
2022-08-27T21:38:00.663Z,16.73
2022-08-27T21:40:28.423Z,16.67
2022-08-27T21:42:56.350Z,16.71
2022-08-27T21:45:24.562Z,16.75
2022-08-27T21:47:51.851Z,16.61
2022-08-27T21:50:19.794Z,16.65
2022-08-27T21:52:47.722Z,16.48
2022-08-27T21:55:14.437Z,16.47
2022-08-27T21:57:40.953Z,16.44
2022-08-27T22:00:30.400Z,16.50
2022-08-27T22:02:57.036Z,16.44
2022-08-27T22:05:25.899Z,16.37
2022-08-27T22:07:52.386Z,16.40
2022-08-27T22:10:19.075Z,16.28
2022-08-27T22:12:45.633Z,16.32
2022-08-27T22:15:19.653Z,16.32
2022-08-27T22:17:51.447Z,16.31
2022-08-27T22:20:18.889Z,16.28
2022-08-27T22:22:45.438Z,16.18
2022-08-27T22:25:12.278Z,16.17
2022-08-27T22:27:39.627Z,16.07
2022-08-27T22:30:11.297Z,16.15
2022-08-27T22:32:39.907Z,16.03
2022-08-27T22:35:09.377Z,15.98
2022-08-27T22:37:38.041Z,16.06
2022-08-27T22:40:08.980Z,15.96
2022-08-27T22:42:47.374Z,15.93
2022-08-27T22:45:15.202Z,15.88
2022-08-27T22:47:43.309Z,15.88
2022-08-27T22:50:10.884Z,15.81
2022-08-27T22:52:42.199Z,15.71
2022-08-27T22:55:34.290Z,15.68
2022-08-27T22:58:02.130Z,15.54
2022-08-27T23:00:32.506Z,15.45
2022-08-27T23:02:59.953Z,15.34
2022-08-27T23:05:27.151Z,15.38
2022-08-27T23:07:54.683Z,15.30
2022-08-27T23:10:24.852Z,15.20
2022-08-27T23:12:53.625Z,15.11
2022-08-27T23:15:28.852Z,15.05
2022-08-27T23:17:56.674Z,14.99
2022-08-27T23:20:25.399Z,14.94
2022-08-27T23:22:52.943Z,14.86
2022-08-27T23:25:43.591Z,14.88
2022-08-27T23:28:14.425Z,14.85
2022-08-27T23:30:42.411Z,14.83
2022-08-27T23:33:09.691Z,15.00
2022-08-27T23:35:38.143Z,15.01
2022-08-27T23:38:04.954Z,14.93
2022-08-27T23:40:34.709Z,14.94
2022-08-27T23:43:03.663Z,14.94
2022-08-27T23:45:30.252Z,14.86
2022-08-27T23:47:56.791Z,14.78
2022-08-27T23:50:33.638Z,14.80
2022-08-27T23:53:03.578Z,14.82
2022-08-27T23:55:30.069Z,14.78
2022-08-27T23:57:57.754Z,14.71
